香港 の空港の天気 - METARとTAF

香港国際空港 ( VHHH / HKG ) - 香港 赤リョウ角
飛行場実況気象(Metar)
観測時間08/16 14:30 HKT (08/16 06:30 UTC)
風向・風速南南東 6m/s
視程10km以上
天気現象
少しの雲 雲底高度 370m
全天の4割程度の雲 雲底高度 760m
気温30℃
湿度75%
気圧999hPa
METARVHHH 160630Z 15011KT 9999 FEW012 SCT025 30/25 Q0999 NOSIG
過去の天気等 Google飛行場航空写真 Wunderground天気予報

過去48時間のMETAR

飛行場予報(TAF)
発表時間: 8/16 13:00 HKT (8/16 05:00 UTC)
予報対象時間: 16日14時 HKT ~ 17日20時 HKT
風向・風速南東 5m/s
視程10km以上
少しの雲 雲底高度 460m
全天の4割程度の雲 雲底高度 910m
16日14時 HKT ~ 16日17時 HKT に一時的に
視程4000m
天気現象しゅう雨
少しの積乱雲 雲底高度 370m
全天の4割程度の雲 雲底高度 610m
16日20時 HKT ~ 17日8時 HKT に一時的に
風向・風速不定 3m/s
17日0時 HKT ~ 17日8時 HKT に一時的に
視程4000m
天気現象しゅう雨
少しの積乱雲 雲底高度 370m
全天の4割程度の雲 雲底高度 610m
17日8時 HKT ~ 17日14時 HKT に一時的に
風向・風速南南西 5m/s
視程3000m
天気現象弱い雷雨 しゅう雨
少しの積乱雲 雲底高度 300m
全天の4割程度の雲 雲底高度 610m
TAF VHHH 160500Z 1606/1712 14010KT 9999 FEW015 SCT030 TX32/1606Z TX32/1706Z TN27/1622Z
TEMPO 1606/1609 4000 SHRA FEW012CB SCT020
TEMPO 1612/1624 VRB05KT
TEMPO 1616/1624 4000 SHRA FEW012CB SCT020
TEMPO 1700/1706 20010KT 3000 -TSRA SHRA FEW010CB SCT020